Nesconset, New York
Current Conditions -  °F | °C
As of 6:56 AM on Monday 24 Nov 2014 (Local Time) from KISP Reporting Station
Light Rain Light Rain  
Wind Chill: 60°   Ceiling: 300
Heat Index: 60°   Visibility: 2mi
Dew Point: 58°   Wind: 23mph
Humidity: 93%   Direction: 170°S
Pressure: 29.73"   Gusts: 36mph
Location:  40.84°N, 73.14°W
Report Text: KISP 241156Z 17020G31KT 2SM -RA BR OVC003 16/14 A2973 RMK AO2 PK WND 16033/1134 SFC VIS 5 SLP067 P0007 60043 70043 T01560144 10156 20133 56034
Loading
Personal Weather Stations






























Interactive Weather Map New forecast layout! Learn more

10-Day Weather Forecast

Advertisements
Track Severe Weather on mobile